Time;durP1;ratioP1;P1;durP2;ratioP2;P2;SDS_P1;SDS_P2;PMS_P1;PMS_P2;Temp;Humidity;BMP_temperature;BMP_pressure;BME280_temperature;BME280_humidity;BME280_pressure;Samples;Min_cycle;Max_cycle;Signal;HPM_P1;HPM_P2
2021/04/20 00:00:23;;;;;;;15.93;7.38;;;;;;;;;;5043073;28;20101;-51
2021/04/20 00:02:50;;;;;;;15.30;7.93;;;;;;;;;;5036899;28;20045;-56
2021/04/20 00:05:17;;;;;;;17.27;8.32;;;;;;;;;;5057864;28;20041;-55
2021/04/20 00:07:43;;;;;;;18.33;8.38;;;;;;;;;;5040521;28;20042;-54
2021/04/20 00:10:10;;;;;;;16.48;7.43;;;;;;;;;;5042839;28;20052;-53
2021/04/20 00:12:36;;;;;;;18.27;8.05;;;;;;;;;;5040581;28;20101;-51
2021/04/20 00:15:03;;;;;;;16.00;8.00;;;;;;;;;;5037272;28;20451;-48
2021/04/20 00:17:31;;;;;;;16.17;7.97;;;;;;;;;;5042566;28;20048;-57
2021/04/20 00:19:59;;;;;;;17.90;7.50;;;;;;;;;;5038746;28;20045;-53
2021/04/20 00:22:25;;;;;;;19.63;8.73;;;;;;;;;;5042695;28;20049;-50
2021/04/20 00:24:51;;;;;;;19.38;8.65;;;;;;;;;;5037976;28;20066;-52
2021/04/20 00:27:17;;;;;;;20.30;8.82;;;;;;;;;;5042670;28;20065;-53
2021/04/20 00:29:43;;;;;;;23.77;8.80;;;;;;;;;;5039385;28;20037;-53
2021/04/20 00:32:09;;;;;;;19.10;8.48;;;;;;;;;;5041547;28;20053;-58
2021/04/20 00:34:35;;;;;;;16.52;7.72;;;;;;;;;;5038788;28;20057;-53
2021/04/20 00:37:02;;;;;;;17.25;8.10;;;;;;;;;;5042383;28;20283;-52
2021/04/20 00:39:28;;;;;;;20.83;7.82;;;;;;;;;;5055877;28;20025;-56
2021/04/20 00:42:03;;;;;;;16.95;8.23;;;;;;;;;;5041654;28;20041;-51
2021/04/20 00:44:31;;;;;;;16.05;7.93;;;;;;;;;;5039301;28;20084;-57
2021/04/20 00:46:57;;;;;;;16.10;8.07;;;;;;;;;;5042595;28;20095;-56
2021/04/20 00:49:23;;;;;;;22.58;9.35;;;;;;;;;;5038157;28;20037;-51
2021/04/20 00:51:50;;;;;;;22.25;10.73;;;;;;;;;;5042654;28;20037;-53
2021/04/20 00:54:17;;;;;;;26.13;11.57;;;;;;;;;;5059625;28;20041;-56
2021/04/20 00:56:43;;;;;;;23.23;10.68;;;;;;;;;;5038776;28;20056;-52
2021/04/20 00:59:09;;;;;;;22.45;9.65;;;;;;;;;;5045322;28;20053;-50
2021/04/20 01:01:35;;;;;;;19.67;9.15;;;;;;;;;;5040919;28;20033;-55
2021/04/20 01:04:02;;;;;;;18.75;7.63;;;;;;;;;;5043133;28;20118;-55
2021/04/20 01:06:28;;;;;;;16.60;7.95;;;;;;;;;;5041715;28;20055;-55
2021/04/20 01:08:54;;;;;;;15.45;7.60;;;;;;;;;;5042906;28;20076;-54
2021/04/20 01:11:21;;;;;;;20.42;7.50;;;;;;;;;;5039775;28;20103;-49
2021/04/20 01:13:48;;;;;;;19.77;8.18;;;;;;;;;;5041890;28;20049;-54
2021/04/20 01:16:15;;;;;;;21.10;8.48;;;;;;;;;;5036501;28;20077;-52
2021/04/20 01:18:41;;;;;;;18.42;8.50;;;;;;;;;;5042518;28;20037;-52
2021/04/20 01:21:08;;;;;;;19.20;8.60;;;;;;;;;;5038519;28;20152;-54
2021/04/20 01:23:41;;;;;;;19.17;9.15;;;;;;;;;;5043106;28;20029;-55
2021/04/20 01:26:08;;;;;;;19.33;8.65;;;;;;;;;;5038308;28;20045;-53
2021/04/20 01:28:36;;;;;;;16.10;8.38;;;;;;;;;;5043441;28;20049;-49
2021/04/20 01:31:02;;;;;;;16.85;8.60;;;;;;;;;;5037996;28;20109;-53
2021/04/20 01:33:28;;;;;;;21.70;9.40;;;;;;;;;;5041252;28;20045;-57
2021/04/20 01:35:54;;;;;;;17.77;8.75;;;;;;;;;;5041202;28;20041;-53
2021/04/20 01:38:20;;;;;;;17.83;8.65;;;;;;;;;;5039774;28;20033;-55
2021/04/20 01:40:46;;;;;;;20.15;8.20;;;;;;;;;;5040168;28;20060;-50
2021/04/20 01:43:13;;;;;;;15.63;7.78;;;;;;;;;;5038750;28;20036;-51
2021/04/20 01:45:40;;;;;;;18.27;7.82;;;;;;;;;;5042160;28;20029;-53
2021/04/20 01:48:08;;;;;;;17.75;8.57;;;;;;;;;;5038051;28;20041;-53
2021/04/20 01:50:37;;;;;;;18.88;9.02;;;;;;;;;;5041482;28;20049;-51
2021/04/20 01:53:06;;;;;;;19.33;8.23;;;;;;;;;;5038741;28;20048;-53
2021/04/20 01:55:32;;;;;;;18.95;8.48;;;;;;;;;;5041769;28;20045;-51
2021/04/20 01:57:58;;;;;;;19.52;9.32;;;;;;;;;;5037174;28;20025;-51
2021/04/20 02:00:25;;;;;;;18.65;8.00;;;;;;;;;;5040589;28;20049;-55
2021/04/20 02:02:53;;;;;;;20.30;8.43;;;;;;;;;;5025631;28;20457;-58
2021/04/20 02:05:20;;;;;;;16.48;7.53;;;;;;;;;;5039506;28;20041;-50
2021/04/20 02:07:46;;;;;;;19.42;9.10;;;;;;;;;;5037393;28;20087;-56
2021/04/20 02:10:13;;;;;;;19.40;8.18;;;;;;;;;;5041963;28;20052;-53
2021/04/20 02:12:39;;;;;;;17.75;8.48;;;;;;;;;;5037270;28;20643;-54
2021/04/20 02:15:06;;;;;;;20.05;8.85;;;;;;;;;;5040955;28;20097;-52
2021/04/20 02:17:34;;;;;;;21.40;9.55;;;;;;;;;;5038383;28;20037;-58
2021/04/20 02:20:00;;;;;;;21.15;9.50;;;;;;;;;;5039583;28;20049;-55
2021/04/20 02:22:26;;;;;;;18.63;9.38;;;;;;;;;;5041472;28;20045;-49
2021/04/20 02:24:52;;;;;;;21.10;9.00;;;;;;;;;;5037798;28;20056;-50
2021/04/20 02:27:18;;;;;;;18.90;8.68;;;;;;;;;;5042055;28;20045;-51
2021/04/20 02:29:44;;;;;;;17.42;7.80;;;;;;;;;;5036966;28;20045;-49
2021/04/20 02:32:10;;;;;;;18.50;8.88;;;;;;;;;;5040838;28;20539;-55
2021/04/20 02:34:37;;;;;;;18.70;9.20;;;;;;;;;;5038263;28;20044;-50
2021/04/20 02:37:03;;;;;;;20.98;9.18;;;;;;;;;;5038988;28;20138;-54
2021/04/20 02:39:29;;;;;;;18.75;9.00;;;;;;;;;;5044987;28;20041;-56
2021/04/20 02:41:56;;;;;;;21.42;9.27;;;;;;;;;;5046899;28;20055;-52
2021/04/20 02:44:22;;;;;;;19.15;9.50;;;;;;;;;;5043898;28;20053;-54
2021/04/20 02:46:48;;;;;;;18.63;9.07;;;;;;;;;;5047613;28;20045;-49
2021/04/20 02:49:16;;;;;;;21.10;9.05;;;;;;;;;;5042937;28;20130;-51
2021/04/20 02:51:44;;;;;;;23.27;9.77;;;;;;;;;;5047451;28;20053;-53
2021/04/20 02:54:10;;;;;;;19.60;8.93;;;;;;;;;;5060138;28;20086;-54
2021/04/20 02:56:37;;;;;;;23.48;9.23;;;;;;;;;;5046776;28;20041;-53
2021/04/20 02:59:09;;;;;;;18.27;8.75;;;;;;;;;;5046000;28;20605;-50
2021/04/20 03:01:36;;;;;;;18.95;8.48;;;;;;;;;;5044356;28;20048;-52
2021/04/20 03:04:03;;;;;;;19.73;9.05;;;;;;;;;;5045474;28;20064;-52
2021/04/20 03:06:29;;;;;;;20.30;8.75;;;;;;;;;;5041734;28;20044;-55
2021/04/20 03:08:57;;;;;;;21.80;9.27;;;;;;;;;;5045545;28;20048;-52
2021/04/20 03:11:24;;;;;;;19.38;9.23;;;;;;;;;;5041603;28;20029;-52
2021/04/20 03:13:50;;;;;;;27.42;9.68;;;;;;;;;;5046723;28;20049;-54
2021/04/20 03:16:17;;;;;;;21.70;9.63;;;;;;;;;;5043788;28;20061;-51
2021/04/20 03:18:43;;;;;;;20.67;9.52;;;;;;;;;;5047280;28;20041;-49
2021/04/20 03:21:12;;;;;;;19.33;9.25;;;;;;;;;;5042744;28;20122;-54
2021/04/20 03:23:39;;;;;;;20.73;8.88;;;;;;;;;;5047037;28;20037;-53
2021/04/20 03:26:15;;;;;;;19.05;8.93;;;;;;;;;;5043664;28;20342;-52
2021/04/20 03:28:42;;;;;;;22.33;9.43;;;;;;;;;;5048003;28;20034;-52
2021/04/20 03:31:07;;;;;;;20.92;9.63;;;;;;;;;;5043454;28;20545;-52
2021/04/20 03:33:36;;;;;;;17.83;8.55;;;;;;;;;;5045154;28;20041;-55
2021/04/20 03:36:05;;;;;;;17.27;8.32;;;;;;;;;;5042984;28;20036;-53
2021/04/20 03:38:31;;;;;;;;;;;;;;;;;;5041482;28;20049;-54
2021/04/20 03:40:56;;;;;;;;;;;;;;;;;;5023841;28;20036;-56
2021/04/20 03:43:22;;;;;;;;;;;;;;;;;;5045636;28;19917;-55
2021/04/20 03:45:48;;;;;;;;;;;;;;;;;;5047092;28;20343;-50
2021/04/20 03:48:15;;;;;;;;;;;;;;;;;;5042716;28;19940;-52
2021/04/20 03:50:41;;;;;;;;;;;;;;;;;;5043229;28;19913;-53
2021/04/20 03:53:07;;;;;;;;;;;;;;;;;;5039982;28;19929;-53
2021/04/20 03:55:32;;;;;;;;;;;;;;;;;;5042644;28;19932;-52
2021/04/20 03:57:58;;;;;;;;;;;;;;;;;;5038476;28;20010;-52
2021/04/20 04:00:24;;;;;;;;;;;;;;;;;;5042849;28;20006;-52
2021/04/20 04:02:50;;;;;;;;;;;;;;;;;;5038282;28;19924;-53
2021/04/20 04:05:15;;;;;;;;;;;;;;;;;;5041927;28;19921;-58
2021/04/20 04:07:41;;;;;;;;;;;;;;;;;;5030076;28;19914;-54
2021/04/20 04:10:08;;;;;;;;;;;;;;;;;;5038563;28;19921;-55
2021/04/20 04:12:34;;;;;;;;;;;;;;;;;;5039845;28;20446;-54
2021/04/20 04:15:00;;;;;;;;;;;;;;;;;;5042108;28;19917;-55
2021/04/20 04:17:25;;;;;;;;;;;;;;;;;;5052623;28;19953;-58
2021/04/20 04:19:53;;;;;;;;;;;;;;;;;;5021382;28;19917;-56
2021/04/20 04:22:18;;;;;;;;;;;;;;;;;;5021529;28;19921;-52
2021/04/20 04:24:44;;;;;;;;;;;;;;;;;;5034107;28;19929;-57
2021/04/20 04:27:10;;;;;;;;;;;;;;;;;;5022933;28;19917;-55
2021/04/20 04:29:36;;;;;;;;;;;;;;;;;;5016958;28;19946;-57
2021/04/20 04:32:02;;;;;;;;;;;;;;;;;;5019095;28;19936;-54
2021/04/20 04:34:27;;;;;;;;;;;;;;;;;;5006846;28;19922;-55
2021/04/20 04:36:53;;;;;;;;;;;;;;;;;;5001664;28;19929;-49
2021/04/20 04:39:19;;;;;;;;;;;;;;;;;;5009408;28;19983;-53
2021/04/20 04:41:47;;;;;;;;;;;;;;;;;;5021406;28;19999;-51
2021/04/20 04:44:12;;;;;;;;;;;;;;;;;;5026520;28;19935;-51
2021/04/20 04:46:38;;;;;;;;;;;;;;;;;;5041042;28;19925;-52
2021/04/20 04:49:04;;;;;;;;;;;;;;;;;;5023543;28;19921;-50
2021/04/20 04:51:30;;;;;;;;;;;;;;;;;;5001793;28;19995;-49
2021/04/20 04:53:56;;;;;;;;;;;;;;;;;;5009646;28;19973;-52
2021/04/20 04:56:22;;;;;;;;;;;;;;;;;;5040995;28;19925;-55
2021/04/20 04:58:49;;;;;;;;;;;;;;;;;;5038703;28;19928;-56
2021/04/20 05:01:15;;;;;;;;;;;;;;;;;;5020011;28;19955;-53
2021/04/20 05:03:40;;;;;;;;;;;;;;;;;;5035125;28;19924;-54
2021/04/20 05:06:06;;;;;;;;;;;;;;;;;;5037872;28;19928;-53
2021/04/20 05:08:32;;;;;;;;;;;;;;;;;;5041088;28;19939;-56
2021/04/20 05:10:58;;;;;;;;;;;;;;;;;;5037640;28;19932;-52
2021/04/20 05:13:24;;;;;;;;;;;;;;;;;;5039702;28;19972;-51
2021/04/20 05:15:50;;;;;;;;;;;;;;;;;;5034323;28;19917;-53
2021/04/20 05:18:16;;;;;;;;;;;;;;;;;;5036740;28;19957;-52
2021/04/20 05:20:42;;;;;;;;;;;;;;;;;;5035234;28;19983;-54
2021/04/20 05:23:08;;;;;;;;;;;;;;;;;;5033667;28;19948;-54
2021/04/20 05:25:33;;;;;;;;;;;;;;;;;;5032531;28;19913;-54
2021/04/20 05:27:59;;;;;;;;;;;;;;;;;;5035972;28;19997;-50
2021/04/20 05:30:26;;;;;;;;;;;;;;;;;;5028730;28;20682;-52
2021/04/20 05:32:53;;;;;;;;;;;;;;;;;;5037386;28;19929;-53
2021/04/20 05:35:18;;;;;;;;;;;;;;;;;;5028393;28;19925;-55
2021/04/20 05:37:46;;;;;;;;;;;;;;;;;;5033730;28;19943;-55
2021/04/20 05:40:12;;;;;;;;;;;;;;;;;;5030618;28;19928;-56
2021/04/20 05:42:37;;;;;;;;;;;;;;;;;;5027823;28;19999;-52
2021/04/20 05:45:03;;;;;;;;;;;;;;;;;;5029276;28;19945;-55
2021/04/20 05:47:29;;;;;;;;;;;;;;;;;;5031522;28;19933;-53
2021/04/20 05:49:55;;;;;;;;;;;;;;;;;;5031341;28;19924;-55
2021/04/20 05:52:21;;;;;;;;;;;;;;;;;;5027442;28;19940;-57
2021/04/20 05:54:47;;;;;;;;;;;;;;;;;;5032549;28;19917;-56
2021/04/20 05:57:13;;;;;;;;;;;;;;;;;;5033602;28;19948;-54
2021/04/20 05:59:44;;;;;;;;;;;;;;;;;;5030455;28;20326;-56
2021/04/20 06:02:09;;;;;;;;;;;;;;;;;;5036551;28;19941;-59
2021/04/20 06:04:35;;;;;;;;;;;;;;;;;;5039296;28;19916;-50
2021/04/20 06:07:01;;;;;;;;;;;;;;;;;;5029266;28;19929;-54
2021/04/20 06:09:27;;;;;;;;;;;;;;;;;;5030735;28;19948;-52
2021/04/20 06:11:52;;;;;;;;;;;;;;;;;;5035285;28;19929;-54
2021/04/20 06:14:18;;;;;;;;;;;;;;;;;;5035390;28;19929;-56
2021/04/20 06:16:45;;;;;;;;;;;;;;;;;;5035748;28;19955;-58
2021/04/20 06:19:11;;;;;;;;;;;;;;;;;;5030087;28;19940;-54
2021/04/20 06:21:37;;;;;;;;;;;;;;;;;;5033885;28;20009;-55
2021/04/20 06:24:02;;;;;;;;;;;;;;;;;;5035463;28;19928;-58
2021/04/20 06:26:28;;;;;;;;;;;;;;;;;;5059310;28;19956;-56
2021/04/20 06:28:54;;;;;;;;;;;;;;;;;;5052574;28;19943;-56
2021/04/20 06:31:21;;;;;;;;;;;;;;;;;;5060627;28;19916;-55
2021/04/20 06:33:47;;;;;;;;;;;;;;;;;;5039062;28;19920;-52
2021/04/20 06:36:12;;;;;;;;;;;;;;;;;;5042743;28;19935;-54
2021/04/20 06:38:39;;;;;;;;;;;;;;;;;;5039080;28;19932;-53
2021/04/20 06:41:05;;;;;;;;;;;;;;;;;;5063244;28;19921;-55
2021/04/20 06:43:31;;;;;;;;;;;;;;;;;;5040678;28;19916;-52
2021/04/20 06:45:57;;;;;;;;;;;;;;;;;;5044811;28;19965;-50
2021/04/20 06:48:23;;;;;;;;;;;;;;;;;;5057058;28;19936;-54
2021/04/20 06:50:52;;;;;;;;;;;;;;;;;;5059623;28;19940;-53
2021/04/20 06:53:18;;;;;;;;;;;;;;;;;;5060234;28;19928;-56
2021/04/20 06:55:43;;;;;;;;;;;;;;;;;;5054490;28;19964;-53
2021/04/20 06:58:09;;;;;;;;;;;;;;;;;;5059323;28;20036;-51
2021/04/20 07:00:35;;;;;;;;;;;;;;;;;;5056474;28;19948;-51
2021/04/20 07:03:01;;;;;;;;;;;;;;;;;;5055536;28;20040;-53
2021/04/20 07:05:27;;;;;;;;;;;;;;;;;;5035454;28;19928;-53
2021/04/20 07:07:53;;;;;;;;;;;;;;;;;;5042242;28;19945;-57
2021/04/20 07:10:18;;;;;;;;;;;;;;;;;;5036800;28;20040;-53
2021/04/20 07:12:44;;;;;;;;;;;;;;;;;;5038588;28;20003;-54
2021/04/20 07:15:10;;;;;;;;;;;;;;;;;;5020700;28;19932;-53
2021/04/20 07:17:36;;;;;;;;;;;;;;;;;;5038207;28;19931;-52
2021/04/20 07:20:02;;;;;;;;;;;;;;;;;;5034807;28;19953;-54
2021/04/20 07:22:32;;;;;;;;;;;;;;;;;;5029823;28;19988;-52
2021/04/20 07:24:58;;;;;;;;;;;;;;;;;;5036528;28;19935;-53
2021/04/20 07:27:24;;;;;;;;;;;;;;;;;;5041392;28;19936;-52
2021/04/20 07:29:50;;;;;;;;;;;;;;;;;;5038663;28;19925;-54
2021/04/20 07:32:15;;;;;;;;;;;;;;;;;;5040599;28;19960;-53
2021/04/20 07:34:41;;;;;;;;;;;;;;;;;;5041793;28;20096;-55
2021/04/20 07:37:07;;;;;;;;;;;;;;;;;;5021584;28;19921;-56
2021/04/20 07:39:34;;;;;;;;;;;;;;;;;;5043273;28;19921;-55
2021/04/20 07:42:00;;;;;;;;;;;;;;;;;;5039553;28;19929;-51
2021/04/20 07:44:26;;;;;;;;;;;;;;;;;;5041758;28;19917;-51
2021/04/20 07:46:52;;;;;;;;;;;;;;;;;;5038486;28;19932;-51
2021/04/20 07:49:20;;;;;;;;;;;;;;;;;;5058604;28;19981;-52
2021/04/20 07:51:45;;;;;;;;;;;;;;;;;;5038745;28;19957;-54
2021/04/20 07:54:11;;;;;;;;;;;;;;;;;;5042113;28;19983;-57
2021/04/20 07:56:37;;;;;;;;;;;;;;;;;;5038298;28;19944;-58
2021/04/20 07:59:03;;;;;;;;;;;;;;;;;;5042476;28;19920;-59
2021/04/20 08:01:29;;;;;;;;;;;;;;;;;;5038571;28;19931;-60
2021/04/20 08:03:55;;;;;;;;;;;;;;;;;;5042348;28;19941;-57
2021/04/20 08:06:20;;;;;;;;;;;;;;;;;;5036842;28;19924;-56
2021/04/20 08:08:47;;;;;;;;;;;;;;;;;;5059111;28;19970;-55
2021/04/20 08:11:12;;;;;;;;;;;;;;;;;;5042981;28;20002;-56
2021/04/20 08:13:38;;;;;;;;;;;;;;;;;;5039388;28;19913;-53
2021/04/20 08:16:04;;;;;;;;;;;;;;;;;;5059307;28;19929;-59
2021/04/20 08:18:34;;;;;;;;;;;;;;;;;;5039847;28;19949;-57
2021/04/20 08:21:00;;;;;;;;;;;;;;;;;;5021875;28;19925;-59
2021/04/20 08:23:26;;;;;;;;;;;;;;;;;;5032774;28;19935;-59
2021/04/20 08:25:54;;;;;;;;;;;;;;;;;;5041605;28;19936;-58
2021/04/20 08:28:20;;;;;;;;;;;;;;;;;;5044081;28;20005;-59
2021/04/20 08:30:46;;;;;;;;;;;;;;;;;;5021353;28;19944;-59
2021/04/20 08:33:11;;;;;;;;;;;;;;;;;;5017113;28;19952;-59
2021/04/20 08:35:37;;;;;;;;;;;;;;;;;;5001095;28;19926;-59
2021/04/20 08:38:07;;;;;;;;;;;;;;;;;;5007522;28;19924;-57
2021/04/20 08:40:37;;;;;;;;;;;;;;;;;;5057853;28;19916;-56
2021/04/20 08:43:02;;;;;;;;;;;;;;;;;;5031485;28;19950;-58
2021/04/20 08:45:28;;;;;;;;;;;;;;;;;;5021243;28;19921;-60
2021/04/20 08:47:54;;;;;;;;;;;;;;;;;;5018894;28;19965;-58
2021/04/20 08:50:21;;;;;;;;;;;;;;;;;;5020201;28;19925;-60
2021/04/20 08:52:47;;;;;;;;;;;;;;;;;;5021054;28;20032;-59
2021/04/20 08:55:13;;;;;;;;;;;;;;;;;;5019711;28;19936;-59
2021/04/20 08:57:39;;;;;;;;;;;;;;;;;;5020564;28;19949;-61
2021/04/20 09:00:04;;;;;;;;;;;;;;;;;;5031788;28;19954;-59
2021/04/20 09:02:30;;;;;;;;;;;;;;;;;;5040619;28;20337;-60
2021/04/20 09:04:56;;;;;;;;;;;;;;;;;;5027331;28;19925;-57
2021/04/20 09:07:22;;;;;;;;;;;;;;;;;;5020960;28;19941;-57
2021/04/20 09:09:48;;;;;;;;;;;;;;;;;;5043764;28;19920;-60
2021/04/20 09:12:14;;;;;;;;;;;;;;;;;;5042743;28;19932;-60
2021/04/20 09:14:39;;;;;;;;;;;;;;;;;;5047347;28;19913;-58
2021/04/20 09:17:05;;;;;;;;;;;;;;;;;;5020649;28;20043;-59
2021/04/20 09:19:31;;;;;;;;;;;;;;;;;;5018725;28;19980;-59
2021/04/20 09:21:57;;;;;;;;;;;;;;;;;;5037122;28;19917;-59
2021/04/20 09:24:22;;;;;;;;;;;;;;;;;;5017613;28;20163;-59
2021/04/20 09:26:48;;;;;;;;;;;;;;;;;;5037237;28;19921;-60
2021/04/20 09:29:14;;;;;;;;;;;;;;;;;;5021936;28;19917;-60
2021/04/20 09:31:40;;;;;;;;;;;;;;;;;;5034349;28;20011;-60
2021/04/20 09:34:06;;;;;;;;;;;;;;;;;;5031185;28;19932;-60
2021/04/20 09:36:32;;;;;;;;;;;;;;;;;;5009216;28;19929;-60
2021/04/20 09:38:58;;;;;;;;;;;;;;;;;;5021020;28;19924;-60
2021/04/20 09:41:24;;;;;;;;;;;;;;;;;;5030279;28;19936;-60
2021/04/20 09:43:50;;;;;;;;;;;;;;;;;;5026548;28;19925;-60
2021/04/20 09:46:15;;;;;;;;;;;;;;;;;;5018479;28;19913;-59
2021/04/20 09:48:43;;;;;;;;;;;;;;;;;;5024584;28;19929;-61
2021/04/20 09:51:09;;;;;;;;;;;;;;;;;;5011445;28;19921;-60
2021/04/20 09:53:35;;;;;;;;;;;;;;;;;;5034136;28;19928;-60
2021/04/20 09:56:02;;;;;;;;;;;;;;;;;;5022281;28;19917;-59
2021/04/20 09:58:29;;;;;;;;;;;;;;;;;;5041637;28;19976;-61
2021/04/20 10:00:54;;;;;;;;;;;;;;;;;;5036314;28;19959;-61
2021/04/20 10:03:20;;;;;;;;;;;;;;;;;;5047820;28;19917;-60
2021/04/20 10:05:47;;;;;;;;;;;;;;;;;;5056772;28;19929;-61
2021/04/20 10:08:15;;;;;;;;;;;;;;;;;;5016883;28;20039;-60
2021/04/20 10:10:41;;;;;;;;;;;;;;;;;;5019977;28;19924;-61
2021/04/20 10:13:08;;;;;;;;;;;;;;;;;;5009149;28;19933;-60
2021/04/20 10:15:36;;;;;;;;;;;;;;;;;;5036128;28;19925;-60
2021/04/20 10:18:03;;;;;;;;;;;;;;;;;;5016355;28;19909;-59
2021/04/20 10:20:30;;;;;;;;;;;;;;;;;;5036806;28;19925;-60
2021/04/20 10:22:55;;;;;;;;;;;;;;;;;;5016862;28;19921;-61
2021/04/20 10:25:22;;;;;;;;;;;;;;;;;;5019686;28;19935;-60
2021/04/20 10:27:47;;;;;;;;;;;;;;;;;;5032805;28;19925;-61
2021/04/20 10:30:13;;;;;;;;;;;;;;;;;;5036395;28;19929;-60
2021/04/20 10:32:40;;;;;;;;;;;;;;;;;;5014989;28;20071;-60
2021/04/20 10:35:06;;;;;;;;;;;;;;;;;;5000865;28;19925;-60
2021/04/20 10:37:33;;;;;;;;;;;;;;;;;;5000035;28;19932;-58
2021/04/20 10:39:59;;;;;;;;;;;;;;;;;;5019952;28;20016;-59
2021/04/20 10:42:25;;;;;;;;;;;;;;;;;;5017478;28;19999;-60
2021/04/20 10:44:50;;;;;;;;;;;;;;;;;;5001260;28;19937;-60
2021/04/20 10:47:16;;;;;;;;;;;;;;;;;;5001223;28;19913;-61
2021/04/20 10:49:43;;;;;;;;;;;;;;;;;;5030649;28;19928;-62
2021/04/20 10:52:09;;;;;;;;;;;;;;;;;;5036005;28;19921;-61
2021/04/20 10:54:37;;;;;;;;;;;;;;;;;;5002086;28;19936;-61
2021/04/20 10:57:03;;;;;;;;;;;;;;;;;;4999460;28;19949;-62
2021/04/20 10:59:30;;;;;;;;;;;;;;;;;;5010063;28;19959;-60
2021/04/20 11:01:56;;;;;;;;;;;;;;;;;;5022818;28;19921;-60
2021/04/20 11:04:23;;;;;;;;;;;;;;;;;;5038396;28;19935;-60
2021/04/20 11:06:49;;;;;;;;;;;;;;;;;;5042539;28;19927;-61
2021/04/20 11:09:15;;;;;;;;;;;;;;;;;;5038963;28;19944;-61
2021/04/20 11:11:41;;;;;;;;;;;;;;;;;;5042515;28;19924;-60
2021/04/20 11:14:06;;;;;;;;;;;;;;;;;;5039112;28;19990;-61
2021/04/20 11:16:32;;;;;;;;;;;;;;;;;;5043624;28;20013;-59
2021/04/20 11:18:58;;;;;;;;;;;;;;;;;;5040257;28;19969;-60
2021/04/20 11:21:24;;;;;;;;;;;;;;;;;;5042410;28;19940;-60
2021/04/20 11:23:50;;;;;;;;;;;;;;;;;;5043044;28;19952;-59
2021/04/20 11:26:16;;;;;;;;;;;;;;;;;;5037910;28;20014;-61
2021/04/20 11:28:41;;;;;;;;;;;;;;;;;;5041989;28;19944;-60
2021/04/20 11:31:07;;;;;;;;;;;;;;;;;;5038219;28;19984;-59
2021/04/20 11:33:33;;;;;;;;;;;;;;;;;;5043538;28;19935;-60
2021/04/20 11:35:59;;;;;;;;;;;;;;;;;;5038230;28;19925;-59
2021/04/20 11:38:25;;;;;;;;;;;;;;;;;;5041992;28;19917;-61
2021/04/20 11:40:51;;;;;;;;;;;;;;;;;;5038200;28;19929;-59
2021/04/20 11:43:16;;;;;;;;;;;;;;;;;;5041406;28;19932;-60
2021/04/20 11:45:42;;;;;;;;;;;;;;;;;;5037920;28;19933;-60
2021/04/20 11:48:12;;;;;;;;;;;;;;;;;;5041499;28;19920;-61
2021/04/20 11:50:37;;;;;;;;;;;;;;;;;;5037791;28;19965;-60
2021/04/20 11:53:03;;;;;;;;;;;;;;;;;;5041599;28;19917;-60
2021/04/20 11:55:29;;;;;;;;;;;;;;;;;;5038637;28;19937;-60
2021/04/20 11:57:54;;;;;;;;;;;;;;;;;;5041788;28;19945;-60
2021/04/20 12:00:20;;;;;;;;;;;;;;;;;;5041519;28;19965;-60
2021/04/20 12:02:47;;;;;;;;;;;;;;;;;;5045353;28;19925;-61
2021/04/20 12:05:12;;;;;;;;;;;;;;;;;;5062787;28;19916;-62
2021/04/20 12:07:38;;;;;;;;;;;;;;;;;;5057829;28;19932;-61
2021/04/20 12:10:04;;;;;;;;;;;;;;;;;;5061264;28;19912;-60
2021/04/20 12:12:30;;;;;;;;;;;;;;;;;;5057156;28;19925;-60
2021/04/20 12:14:56;;;;;;;;;;;;;;;;;;5045022;28;19928;-60
2021/04/20 12:17:21;;;;;;;;;;;;;;;;;;5060310;28;19928;-61
2021/04/20 12:19:47;;;;;;;;;;;;;;;;;;5045407;28;19924;-62
2021/04/20 12:22:14;;;;;;;;;;;;;;;;;;5058915;28;19931;-60
2021/04/20 12:24:40;;;;;;;;;;;;;;;;;;5045069;28;19917;-59
2021/04/20 12:27:07;;;;;;;;;;;;;;;;;;5058976;28;19924;-60
2021/04/20 12:29:34;;;;;;;;;;;;;;;;;;5061926;28;19929;-62
2021/04/20 12:31:59;;;;;;;;;;;;;;;;;;5041361;28;20090;-59
2021/04/20 12:34:25;;;;;;;;;;;;;;;;;;5062603;28;19956;-61
2021/04/20 12:36:51;;;;;;;;;;;;;;;;;;5042017;28;19936;-60
2021/04/20 12:39:17;;;;;;;;;;;;;;;;;;5043735;28;19935;-61
2021/04/20 12:41:43;;;;;;;;;;;;;;;;;;5045007;28;19956;-60
2021/04/20 12:44:09;;;;;;;;;;;;;;;;;;5057878;28;19920;-59
2021/04/20 12:46:34;;;;;;;;;;;;;;;;;;5045406;28;19912;-60
2021/04/20 12:49:01;;;;;;;;;;;;;;;;;;5041705;28;19982;-59
2021/04/20 12:51:26;;;;;;;;;;;;;;;;;;5064026;28;19921;-59
2021/04/20 12:53:52;;;;;;;;;;;;;;;;;;5059370;28;19928;-61
2021/04/20 12:56:18;;;;;;;;;;;;;;;;;;5046259;28;19920;-60
2021/04/20 12:58:45;;;;;;;;;;;;;;;;;;5059221;28;19974;-61
2021/04/20 13:01:11;;;;;;;;;;;;;;;;;;5062703;28;19926;-60
2021/04/20 13:03:37;;;;;;;;;;;;;;;;;;5040794;28;19929;-61
2021/04/20 13:06:03;;;;;;;;;;;;;;;;;;5061852;28;19928;-62
2021/04/20 13:08:29;;;;;;;;;;;;;;;;;;5057971;28;19923;-59
2021/04/20 13:10:55;;;;;;;;;;;;;;;;;;5044302;28;19950;-61
2021/04/20 13:14:46;;;;;;;14.18;6.90;;;;;;;;;;5114920;27;20186;-61
2021/04/20 13:17:15;;;;;;;12.77;7.22;;;;;;;;;;5076471;28;20113;-61
2021/04/20 13:19:41;;;;;;;11.82;6.78;;;;;;;;;;5073522;28;20055;-60
2021/04/20 13:22:08;;;;;;;15.93;7.93;;;;;;;;;;5077404;28;20047;-59
2021/04/20 13:24:34;;;;;;;14.10;7.30;;;;;;;;;;5072456;28;20040;-60
2021/04/20 13:27:01;;;;;;;16.17;8.52;;;;;;;;;;5076406;28;20090;-58
2021/04/20 13:29:29;;;;;;;17.65;7.60;;;;;;;;;;5074765;28;20048;-60
2021/04/20 13:31:58;;;;;;;16.05;7.13;;;;;;;;;;5074675;28;20125;-59
2021/04/20 13:34:25;;;;;;;13.15;7.45;;;;;;;;;;5072657;28;20052;-61
2021/04/20 13:36:51;;;;;;;12.30;6.75;;;;;;;;;;5076334;28;20032;-58
2021/04/20 13:39:21;;;;;;;14.63;7.45;;;;;;;;;;5074771;28;20049;-59
2021/04/20 13:41:50;;;;;;;15.57;7.05;;;;;;;;;;5076787;28;20036;-61
2021/04/20 13:44:21;;;;;;;15.63;7.35;;;;;;;;;;5095814;28;20055;-58
2021/04/20 13:46:48;;;;;;;16.77;7.00;;;;;;;;;;5092790;28;20053;-59
2021/04/20 13:49:15;;;;;;;15.43;7.93;;;;;;;;;;5095439;28;20036;-59
2021/04/20 13:51:43;;;;;;;20.60;8.10;;;;;;;;;;5090597;28;20047;-61
2021/04/20 13:54:10;;;;;;;14.63;7.37;;;;;;;;;;5095188;28;20162;-58
2021/04/20 13:56:39;;;;;;;15.77;8.50;;;;;;;;;;5091609;28;20060;-59
2021/04/20 13:59:08;;;;;;;19.42;8.13;;;;;;;;;;5095467;28;20056;-60
2021/04/20 14:01:38;;;;;;;17.40;7.40;;;;;;;;;;5083855;28;20036;-59
2021/04/20 14:04:06;;;;;;;19.75;7.72;;;;;;;;;;5094946;28;20040;-58
2021/04/20 14:06:35;;;;;;;14.43;7.63;;;;;;;;;;5092468;28;20092;-58
2021/04/20 14:09:04;;;;;;;15.35;7.10;;;;;;;;;;5096870;28;20032;-59
2021/04/20 14:11:37;;;;;;;16.15;8.43;;;;;;;;;;5095303;28;20036;-60
2021/04/20 14:14:04;;;;;;;21.20;7.78;;;;;;;;;;5097551;28;20132;-59
2021/04/20 14:16:30;;;;;;;18.58;7.30;;;;;;;;;;5093165;28;20077;-61
2021/04/20 14:18:58;;;;;;;18.92;8.00;;;;;;;;;;5094883;28;20044;-58
2021/04/20 14:21:31;;;;;;;24.38;8.18;;;;;;;;;;5092931;28;20040;-60
2021/04/20 14:23:59;;;;;;;79.82;17.80;;;;;;;;;;5094648;28;20102;-58
2021/04/20 14:26:27;;;;;;;15.85;7.88;;;;;;;;;;5079270;28;20122;-58
2021/04/20 14:29:01;;;;;;;15.20;7.40;;;;;;;;;;5080748;28;20060;-59
2021/04/20 14:31:30;;;;;;;18.45;8.23;;;;;;;;;;5080185;28;20076;-60
2021/04/20 14:33:56;;;;;;;14.82;7.75;;;;;;;;;;5078534;28;20040;-58
2021/04/20 14:36:25;;;;;;;15.90;7.43;;;;;;;;;;5078492;28;20048;-58
2021/04/20 14:38:52;;;;;;;15.52;7.63;;;;;;;;;;5078894;28;20055;-58
2021/04/20 14:41:19;;;;;;;17.27;8.63;;;;;;;;;;5084218;28;20032;-60
2021/04/20 14:43:47;;;;;;;15.00;7.53;;;;;;;;;;5081217;28;20044;-60
2021/04/20 14:46:13;;;;;;;14.73;7.88;;;;;;;;;;5083578;28;20046;-60
2021/04/20 14:48:42;;;;;;;21.67;8.43;;;;;;;;;;5078409;28;20044;-61
2021/04/20 14:51:08;;;;;;;17.65;8.30;;;;;;;;;;5085069;28;20050;-59
2021/04/20 14:53:35;;;;;;;22.27;8.23;;;;;;;;;;5078071;28;20040;-60
2021/04/20 14:56:03;;;;;;;14.60;7.65;;;;;;;;;;5081316;28;20051;-59
2021/04/20 14:58:30;;;;;;;13.45;7.78;;;;;;;;;;5079344;28;20088;-57
2021/04/20 15:00:59;;;;;;;16.57;7.90;;;;;;;;;;5081878;28;20036;-61
2021/04/20 15:03:26;;;;;;;86.05;16.45;;;;;;;;;;5078333;28;20047;-60
2021/04/20 15:05:56;;;;;;;15.57;8.82;;;;;;;;;;5082280;28;20048;-61
2021/04/20 15:08:23;;;;;;;18.38;8.10;;;;;;;;;;5078149;28;20044;-60
2021/04/20 15:10:51;;;;;;;19.90;8.85;;;;;;;;;;5076072;28;20024;-60
2021/04/20 15:13:19;;;;;;;46.42;10.00;;;;;;;;;;5065132;28;20056;-61
2021/04/20 15:15:47;;;;;;;57.78;12.90;;;;;;;;;;5072306;28;20055;-60
2021/04/20 15:18:15;;;;;;;17.25;8.88;;;;;;;;;;5071396;28;20037;-60
2021/04/20 15:20:43;;;;;;;28.33;9.48;;;;;;;;;;5078167;28;20060;-60
2021/04/20 15:23:15;;;;;;;15.00;8.48;;;;;;;;;;5069406;28;20076;-61
2021/04/20 15:25:43;;;;;;;17.67;8.82;;;;;;;;;;5070274;28;20056;-61
2021/04/20 15:28:11;;;;;;;16.05;8.55;;;;;;;;;;5075974;28;20040;-61
2021/04/20 15:30:39;;;;;;;16.02;7.80;;;;;;;;;;5062780;28;20063;-58
2021/04/20 15:33:08;;;;;;;14.90;8.38;;;;;;;;;;5068562;28;20060;-60
2021/04/20 15:35:35;;;;;;;14.95;8.07;;;;;;;;;;5063408;28;20056;-60
2021/04/20 15:38:03;;;;;;;16.35;7.43;;;;;;;;;;5068021;28;20088;-58
2021/04/20 15:40:30;;;;;;;17.27;8.40;;;;;;;;;;5069317;28;20025;-61
2021/04/20 15:43:00;;;;;;;28.45;9.00;;;;;;;;;;5069163;28;20049;-59